Time;durP1;ratioP1;P1;durP2;ratioP2;P2;SDS_P1;SDS_P2;PMS_P1;PMS_P2;Temp;Humidity;BMP_temperature;BMP_pressure;BME280_temperature;BME280_humidity;BME280_pressure;Samples;Min_cycle;Max_cycle;Signal;HPM_P1;HPM_P2
2023/05/19 00:05:45;;;;;;;6.17;2.57;;;13.30;55.50;;;;;;20923871;28;20361;-73
2023/05/19 00:15:47;;;;;;;6.37;2.47;;;13.10;56.00;;;;;;20922098;28;20551;-74
2023/05/19 00:25:48;;;;;;;6.43;2.20;;;13.00;56.60;;;;;;20921767;28;20588;-74
2023/05/19 00:35:50;;;;;;;5.90;2.53;;;12.90;57.10;;;;;;20921665;28;20869;-74
2023/05/19 00:45:52;;;;;;;7.00;2.77;;;12.80;57.70;;;;;;20920494;28;20244;-73
2023/05/19 00:55:54;;;;;;;5.20;2.60;;;12.50;58.40;;;;;;20919885;28;20215;-74
2023/05/19 01:05:56;;;;;;;9.80;5.10;;;12.30;59.50;;;;;;20919360;28;20700;-74
2023/05/19 01:16:07;;;;;;;5.63;2.77;;;12.10;60.90;;;;;;20918052;28;20375;-74
2023/05/19 01:26:27;;;;;;;7.23;2.70;;;11.90;62.30;;;;;;20917273;28;20242;-75
2023/05/19 01:36:32;;;;;;;13.73;3.13;;;11.60;63.40;;;;;;20917046;28;20299;-73
2023/05/19 01:46:34;;;;;;;14.40;6.70;;;11.40;64.20;;;;;;20916074;28;20246;-75
2023/05/19 01:56:54;;;;;;;5.37;3.20;;;11.40;65.00;;;;;;20924976;28;20188;-74
2023/05/19 02:06:56;;;;;;;9.93;3.67;;;11.20;66.20;;;;;;20960523;28;20231;-72
2023/05/19 02:16:58;;;;;;;9.37;3.27;;;11.00;67.30;;;;;;20914134;28;20634;-72
2023/05/19 02:27:00;;;;;;;13.17;4.33;;;11.10;68.00;;;;;;20913607;28;20722;-72
2023/05/19 02:37:01;;;;;;;10.90;3.63;;;11.00;69.60;;;;;;20912550;28;20598;-72
2023/05/19 02:47:03;;;;;;;5.87;3.20;;;10.90;70.70;;;;;;20911967;28;20697;-73
2023/05/19 02:57:05;;;;;;;7.57;3.30;;;10.90;71.60;;;;;;20911667;28;20298;-73
2023/05/19 03:07:15;;;;;;;7.27;2.77;;;10.90;71.80;;;;;;20912001;28;20264;-72
2023/05/19 03:17:16;;;;;;;8.73;3.00;;;10.90;72.40;;;;;;20910976;28;20211;-72
2023/05/19 03:27:18;;;;;;;9.93;2.80;;;11.00;72.40;;;;;;20910262;28;20238;-72
2023/05/19 03:37:20;;;;;;;8.00;3.17;;;11.10;73.00;;;;;;20910856;28;20578;-73
2023/05/19 03:47:22;;;;;;;7.07;2.80;;;11.10;72.80;;;;;;20918866;28;20263;-73
2023/05/19 03:57:23;;;;;;;8.60;3.20;;;11.10;72.90;;;;;;20924507;28;20212;-73
2023/05/19 04:07:25;;;;;;;8.87;2.80;;;11.20;73.10;;;;;;20923746;28;20291;-73
2023/05/19 04:17:28;;;;;;;13.10;2.87;;;;;;;;;;20922820;28;20679;-73
2023/05/19 04:27:30;;;;;;;11.10;3.20;;;11.50;73.20;;;;;;20921730;28;20576;-72
2023/05/19 04:37:36;;;;;;;11.53;2.90;;;11.60;73.60;;;;;;20921583;28;20240;-73
2023/05/19 04:47:37;;;;;;;12.67;2.77;;;11.80;72.00;;;;;;20920239;28;20316;-72
2023/05/19 04:57:39;;;;;;;10.93;2.90;;;12.00;71.50;;;;;;20892964;28;20670;-73
2023/05/19 05:07:42;;;;;;;25.00;5.53;;;12.10;71.90;;;;;;20846144;28;20327;-73
2023/05/19 05:17:44;;;;;;;16.23;3.57;;;12.20;70.60;;;;;;20836136;28;20220;-73
2023/05/19 05:27:46;;;;;;;4.63;2.50;;;12.20;71.20;;;;;;20836188;28;20255;-73
2023/05/19 05:37:47;;;;;;;7.53;2.90;;;12.90;71.20;;;;;;20836269;28;20200;-72
2023/05/19 05:47:50;;;;;;;8.77;2.90;;;12.80;70.00;;;;;;20856617;28;20279;-74
2023/05/19 05:57:52;;;;;;;9.00;2.80;;;13.40;67.50;;;;;;20853504;28;20234;-72
2023/05/19 06:07:53;;;;;;;10.43;2.83;;;13.50;67.50;;;;;;20831074;28;20264;-72
2023/05/19 06:17:55;;;;;;;7.20;2.63;;;13.80;66.00;;;;;;20830988;28;20293;-73
2023/05/19 06:27:57;;;;;;;10.83;2.90;;;14.10;65.00;;;;;;20830173;28;20294;-72
2023/05/19 06:37:58;;;;;;;7.33;2.40;;;14.60;63.00;;;;;;20832022;28;20244;-72
2023/05/19 06:48:02;;;;;;;6.73;2.30;;;15.00;62.80;;;;;;20829826;28;20236;-72
2023/05/19 06:58:03;;;;;;;10.30;3.10;;;15.50;61.10;;;;;;20828924;28;20215;-73
2023/05/19 07:08:07;;;;;;;5.70;2.47;;;15.60;60.00;;;;;;20828987;28;20244;-74
2023/05/19 07:18:08;;;;;;;6.97;2.80;;;16.30;61.00;;;;;;20832532;28;20235;-73
2023/05/19 07:28:10;;;;;;;8.00;2.73;;;15.90;59.80;;;;;;20843630;28;20808;-73
2023/05/19 07:38:12;;;;;;;6.33;2.40;;;15.80;58.80;;;;;;20843225;28;20678;-72
2023/05/19 07:48:14;;;;;;;7.97;2.73;;;15.90;59.10;;;;;;20842453;28;20232;-73
2023/05/19 07:58:16;;;;;;;5.10;2.30;;;16.20;58.70;;;;;;20842290;28;20224;-73
2023/05/19 08:08:18;;;;;;;8.80;3.20;;;16.60;58.40;;;;;;20843207;28;20333;-73
2023/05/19 08:18:20;;;;;;;9.23;2.83;;;17.00;57.10;;;;;;20840533;28;20303;-74
2023/05/19 08:28:21;;;;;;;5.73;2.90;;;17.20;57.40;;;;;;20838412;28;20243;-73
2023/05/19 08:38:25;;;;;;;7.47;2.70;;;17.60;56.20;;;;;;20838494;28;20294;-74
2023/05/19 08:48:32;;;;;;;6.97;3.07;;;17.40;56.70;;;;;;20838264;28;20267;-75
2023/05/19 08:58:34;;;;;;;6.33;2.47;;;17.70;56.40;;;;;;20837176;28;20639;-73
2023/05/19 09:08:36;;;;;;;7.47;2.70;;;17.80;56.40;;;;;;20836354;28;20335;-74
2023/05/19 09:18:39;;;;;;;4.93;2.70;;;18.00;55.80;;;;;;20835453;28;20235;-73
2023/05/19 09:28:41;;;;;;;7.77;2.67;;;18.50;55.30;;;;;;20835045;28;20245;-74
2023/05/19 09:38:44;;;;;;;7.20;2.67;;;18.70;54.40;;;;;;20839451;28;20212;-73
2023/05/19 09:48:46;;;;;;;10.93;2.57;;;18.50;54.30;;;;;;20853869;28;20741;-72
2023/05/19 09:58:48;;;;;;;8.43;2.80;;;18.50;54.40;;;;;;20836152;28;20214;-73
2023/05/19 10:08:51;;;;;;;6.33;2.47;;;18.30;54.50;;;;;;20831591;28;20239;-73
2023/05/19 10:18:54;;;;;;;7.17;2.87;;;18.60;53.90;;;;;;20831554;28;20572;-74
2023/05/19 10:28:57;;;;;;;5.20;2.77;;;18.70;54.40;;;;;;20830071;28;20335;-74
2023/05/19 10:39:12;;;;;;;6.37;2.27;;;18.90;54.20;;;;;;20829978;28;20200;-74
2023/05/19 10:49:23;;;;;;;4.47;2.30;;;19.10;53.90;;;;;;20829981;28;20236;-75
2023/05/19 10:59:31;;;;;;;6.20;2.67;;;19.00;54.10;;;;;;20844154;28;20204;-75
2023/05/19 11:09:39;;;;;;;6.57;2.40;;;19.30;53.90;;;;;;20844883;28;20267;-74
2023/05/19 11:19:53;;;;;;;5.20;2.40;;;19.20;53.90;;;;;;20845694;28;20695;-74
2023/05/19 11:29:58;;;;;;;5.13;2.50;;;19.40;54.00;;;;;;20841712;28;20326;-73
2023/05/19 11:40:07;;;;;;;5.60;2.43;;;19.30;53.80;;;;;;20870874;28;20722;-72
2023/05/19 11:50:11;;;;;;;4.03;2.40;;;19.50;53.70;;;;;;20884104;28;20254;-72
2023/05/19 12:00:13;;;;;;;6.90;2.27;;;19.80;53.00;;;;;;20874778;28;20323;-73
2023/05/19 12:10:16;;;;;;;5.23;2.27;;;19.80;53.50;;;;;;20895253;28;20254;-72
2023/05/19 12:20:18;;;;;;;5.07;2.10;;;19.80;53.20;;;;;;20938014;28;20637;-75
2023/05/19 12:30:26;;;;;;;3.07;1.80;;;20.00;51.50;;;;;;20920923;28;20240;-73
2023/05/19 12:40:28;;;;;;;7.57;1.90;;;20.30;49.60;;;;;;20920215;28;20223;-73
2023/05/19 12:50:31;;;;;;;5.47;1.90;;;20.70;49.10;;;;;;20920373;28;20285;-76
2023/05/19 13:00:40;;;;;;;4.67;1.87;;;20.80;49.70;;;;;;20918752;28;20242;-74
2023/05/19 13:10:43;;;;;;;7.70;2.33;;;21.40;50.60;;;;;;20950216;28;20246;-71
2023/05/19 13:20:46;;;;;;;4.73;1.80;;;21.60;50.00;;;;;;20976356;28;20204;-71
2023/05/19 13:30:48;;;;;;;6.47;1.90;;;21.50;48.90;;;;;;20916660;28;20231;-71
2023/05/19 13:40:50;;;;;;;3.57;2.00;;;21.50;49.40;;;;;;20964463;28;20203;-71
2023/05/19 13:50:54;;;;;;;9.13;2.80;;;21.90;48.60;;;;;;20997874;28;20270;-70
2023/05/19 14:00:58;;;;;;;5.77;2.20;;;21.80;48.70;;;;;;20995441;28;20203;-71
2023/05/19 14:11:00;;;;;;;3.47;2.10;;;21.60;48.40;;;;;;20981924;28;20232;-71
2023/05/19 14:21:02;;;;;;;3.87;2.23;;;21.60;48.50;;;;;;20913474;28;20714;-70
2023/05/19 14:31:04;;;;;;;5.07;2.40;;;21.30;48.80;;;;;;20912066;28;20232;-76
2023/05/19 14:41:06;;;;;;;2.77;1.90;;;21.50;48.60;;;;;;20912741;28;20656;-77
2023/05/19 14:51:08;;;;;;;6.00;1.97;;;23.00;47.60;;;;;;20883850;28;20330;-76
2023/05/19 15:01:10;;;;;;;3.58;1.75;;;24.10;45.90;;;;;;20850006;28;20216;-71
2023/05/19 15:11:12;;;;;;;4.70;2.00;;;27.00;42.20;;;;;;20912329;28;20227;-72
2023/05/19 15:21:13;;;;;;;8.68;1.80;;;27.60;39.00;;;;;;20983512;28;20320;-72
2023/05/19 15:31:15;;;;;;;4.55;1.92;;;27.20;39.10;;;;;;20910591;28;20322;-71
2023/05/19 15:41:17;;;;;;;2.92;1.60;;;25.70;40.20;;;;;;20917625;28;20696;-75
2023/05/19 15:51:18;;;;;;;5.07;1.88;;;25.50;40.00;;;;;;20925441;28;20318;-72
2023/05/19 16:01:20;;;;;;;2.88;1.90;;;25.70;39.70;;;;;;20923971;28;20686;-72
2023/05/19 16:11:22;;;;;;;6.28;1.77;;;27.20;38.60;;;;;;20940864;28;20262;-72
2023/05/19 16:21:24;;;;;;;2.40;1.63;;;26.10;39.10;;;;;;21005209;28;20238;-71
2023/05/19 16:31:26;;;;;;;4.93;2.07;;;25.10;40.40;;;;;;21006628;28;20269;-71
2023/05/19 16:41:27;;;;;;;4.73;1.87;;;24.00;41.20;;;;;;21004534;28;20203;-75
2023/05/19 16:51:29;;;;;;;3.63;1.80;;;23.10;42.20;;;;;;21003401;28;20241;-70
2023/05/19 17:01:31;;;;;;;10.33;2.50;;;22.50;43.20;;;;;;20941001;28;20294;-76
2023/05/19 17:11:33;;;;;;;2.37;1.80;;;22.50;44.80;;;;;;20940349;28;20698;-70
2023/05/19 17:21:35;;;;;;;2.00;1.80;;;23.40;43.80;;;;;;21004769;28;20259;-69
2023/05/19 17:31:36;;;;;;;4.13;2.00;;;22.40;44.20;;;;;;20978075;28;20274;-72
2023/05/19 17:41:38;;;;;;;4.23;2.10;;;22.70;44.20;;;;;;20915317;28;20214;-75
2023/05/19 17:51:40;;;;;;;2.23;2.03;;;21.90;44.70;;;;;;20915004;28;20239;-74
2023/05/19 18:01:42;;;;;;;3.60;2.23;;;21.30;45.60;;;;;;20913100;28;20294;-71
2023/05/19 18:11:44;;;;;;;5.43;2.50;;;20.90;46.40;;;;;;20913875;28;20267;-75
2023/05/19 18:21:46;;;;;;;3.67;2.33;;;20.60;47.30;;;;;;20892206;28;20310;-74
2023/05/19 18:31:48;;;;;;;3.33;2.40;;;20.30;47.80;;;;;;20850376;28;20614;-70
2023/05/19 18:41:50;;;;;;;6.27;2.80;;;20.10;48.50;;;;;;20904937;28;20249;-71
2023/05/19 18:51:51;;;;;;;8.67;2.60;;;19.70;49.10;;;;;;20894454;28;20315;-75
2023/05/19 19:01:53;;;;;;;4.37;2.70;;;19.70;49.90;;;;;;20829306;28;20243;-74
2023/05/19 19:11:55;;;;;;;3.17;2.60;;;19.50;50.00;;;;;;20884491;28;20235;-72
2023/05/19 19:21:57;;;;;;;8.13;2.60;;;19.40;50.90;;;;;;20924449;28;20253;-71
2023/05/19 19:31:59;;;;;;;4.50;2.50;;;19.20;51.20;;;;;;20924786;28;20242;-72
2023/05/19 19:42:01;;;;;;;3.30;2.23;;;19.10;51.50;;;;;;20924430;28;20216;-70
2023/05/19 19:52:02;;;;;;;8.50;2.60;;;18.90;51.90;;;;;;20843992;28;20243;-71
2023/05/19 20:02:04;;;;;;;11.30;2.67;;;18.80;52.30;;;;;;20842233;28;20219;-68
2023/05/19 20:12:06;;;;;;;3.47;2.87;;;18.70;52.40;;;;;;20846901;28;20322;-71
2023/05/19 20:22:08;;;;;;;5.53;2.70;;;18.60;53.10;;;;;;20849787;28;20241;-71
2023/05/19 20:32:10;;;;;;;9.00;2.97;;;18.60;53.50;;;;;;20872065;28;20240;-71
2023/05/19 20:42:12;;;;;;;6.80;2.97;;;18.50;54.00;;;;;;20872296;28;20281;-71
2023/05/19 20:52:15;;;;;;;4.90;2.70;;;18.40;54.70;;;;;;20871380;28;20234;-72
2023/05/19 21:02:16;;;;;;;4.20;2.50;;;18.30;55.50;;;;;;20883997;28;20282;-71
2023/05/19 21:12:22;;;;;;;4.23;2.80;;;18.20;56.20;;;;;;20871572;28;20229;-72
2023/05/19 21:22:25;;;;;;;4.27;3.00;;;18.10;56.70;;;;;;20875893;28;20313;-72
2023/05/19 21:32:28;;;;;;;11.10;3.37;;;18.10;57.40;;;;;;20868417;28;20292;-71
2023/05/19 21:42:30;;;;;;;4.13;2.97;;;18.00;58.00;;;;;;20867576;28;20206;-71
2023/05/19 21:52:32;;;;;;;6.97;3.17;;;17.90;58.80;;;;;;20866078;28;20423;-71
2023/05/19 22:02:33;;;;;;;7.10;3.00;;;17.90;59.40;;;;;;20874508;28;20210;-72
2023/05/19 22:12:35;;;;;;;5.63;3.03;;;17.80;59.80;;;;;;20866944;28;20328;-72
2023/05/19 22:22:37;;;;;;;7.13;2.90;;;17.70;60.30;;;;;;20872773;28;20245;-73
2023/05/19 22:32:39;;;;;;;4.50;3.27;;;17.70;60.60;;;;;;20864726;28;20375;-71
2023/05/19 22:42:41;;;;;;;4.90;3.13;;;17.50;61.10;;;;;;20864517;28;20204;-72
2023/05/19 22:52:42;;;;;;;4.80;2.97;;;17.50;61.60;;;;;;20862204;28;20228;-72
2023/05/19 23:02:44;;;;;;;5.47;3.17;;;17.20;62.10;;;;;;20871509;28;20213;-72
2023/05/19 23:12:46;;;;;;;5.97;3.53;;;17.20;62.90;;;;;;20863782;28;20241;-72
2023/05/19 23:22:47;;;;;;;6.40;3.37;;;17.10;63.20;;;;;;20870067;28;20731;-72
2023/05/19 23:32:50;;;;;;;8.27;3.70;;;17.00;64.00;;;;;;20855325;28;20243;-72
2023/05/19 23:42:51;;;;;;;8.57;3.87;;;16.80;64.60;;;;;;20868858;28;20209;-72
2023/05/19 23:52:53;;;;;;;5.67;3.70;;;16.80;65.10;;;;;;20827502;28;20235;-71
